sensor_id;sensor_type;location;lat;lon;timestamp;temperature;humidity
32706;DHT22;19094;50.972;3.538;2022-10-16T00:01:23;18.60;63.90
32706;DHT22;19094;50.972;3.538;2022-10-16T00:03:50;18.60;63.90
32706;DHT22;19094;50.972;3.538;2022-10-16T00:06:18;18.60;64.00
32706;DHT22;19094;50.972;3.538;2022-10-16T00:08:45;18.60;64.10
32706;DHT22;19094;50.972;3.538;2022-10-16T00:11:15;18.60;64.10
32706;DHT22;19094;50.972;3.538;2022-10-16T00:13:42;18.50;64.10
32706;DHT22;19094;50.972;3.538;2022-10-16T00:16:11;18.60;64.20
32706;DHT22;19094;50.972;3.538;2022-10-16T00:18:38;18.50;64.10
32706;DHT22;19094;50.972;3.538;2022-10-16T00:21:06;18.50;64.20
32706;DHT22;19094;50.972;3.538;2022-10-16T00:23:32;18.50;64.30
32706;DHT22;19094;50.972;3.538;2022-10-16T00:25:59;18.50;64.50
32706;DHT22;19094;50.972;3.538;2022-10-16T00:28:27;18.50;64.50
32706;DHT22;19094;50.972;3.538;2022-10-16T00:30:53;18.50;64.50
32706;DHT22;19094;50.972;3.538;2022-10-16T00:33:19;18.50;64.50
32706;DHT22;19094;50.972;3.538;2022-10-16T00:35:46;18.40;64.60
32706;DHT22;19094;50.972;3.538;2022-10-16T00:38:13;18.40;64.60
32706;DHT22;19094;50.972;3.538;2022-10-16T00:40:40;18.40;64.70
32706;DHT22;19094;50.972;3.538;2022-10-16T00:43:52;18.40;64.80
32706;DHT22;19094;50.972;3.538;2022-10-16T00:46:35;18.40;64.80
32706;DHT22;19094;50.972;3.538;2022-10-16T00:51:36;18.40;65.10
32706;DHT22;19094;50.972;3.538;2022-10-16T00:54:04;18.40;65.10
32706;DHT22;19094;50.972;3.538;2022-10-16T00:56:33;18.40;65.20
32706;DHT22;19094;50.972;3.538;2022-10-16T00:58:59;18.40;65.20
32706;DHT22;19094;50.972;3.538;2022-10-16T01:01:26;18.40;65.30
32706;DHT22;19094;50.972;3.538;2022-10-16T01:03:52;18.40;65.30
32706;DHT22;19094;50.972;3.538;2022-10-16T01:06:36;18.40;65.30
32706;DHT22;19094;50.972;3.538;2022-10-16T01:09:20;18.40;65.40
32706;DHT22;19094;50.972;3.538;2022-10-16T01:12:08;18.30;65.40
32706;DHT22;19094;50.972;3.538;2022-10-16T01:17:52;18.30;65.40
32706;DHT22;19094;50.972;3.538;2022-10-16T01:23:06;18.30;65.60
32706;DHT22;19094;50.972;3.538;2022-10-16T01:28:25;18.30;65.70
32706;DHT22;19094;50.972;3.538;2022-10-16T01:30:56;18.30;65.80
32706;DHT22;19094;50.972;3.538;2022-10-16T01:33:56;18.30;65.80
32706;DHT22;19094;50.972;3.538;2022-10-16T01:36:34;18.40;65.80
32706;DHT22;19094;50.972;3.538;2022-10-16T01:39:02;18.20;65.80
32706;DHT22;19094;50.972;3.538;2022-10-16T01:41:36;18.30;65.80
32706;DHT22;19094;50.972;3.538;2022-10-16T01:44:10;18.30;66.00
32706;DHT22;19094;50.972;3.538;2022-10-16T01:46:40;18.20;66.00
32706;DHT22;19094;50.972;3.538;2022-10-16T01:49:09;18.30;66.00
32706;DHT22;19094;50.972;3.538;2022-10-16T01:51:37;18.30;66.00
32706;DHT22;19094;50.972;3.538;2022-10-16T01:54:05;18.30;66.00
32706;DHT22;19094;50.972;3.538;2022-10-16T01:56:32;18.20;66.00
32706;DHT22;19094;50.972;3.538;2022-10-16T01:59:04;18.30;66.00
32706;DHT22;19094;50.972;3.538;2022-10-16T02:01:33;18.20;66.00
32706;DHT22;19094;50.972;3.538;2022-10-16T02:04:10;18.30;66.00
32706;DHT22;19094;50.972;3.538;2022-10-16T02:06:38;18.20;66.10
32706;DHT22;19094;50.972;3.538;2022-10-16T02:09:04;18.20;66.10
32706;DHT22;19094;50.972;3.538;2022-10-16T02:11:30;18.20;66.20
32706;DHT22;19094;50.972;3.538;2022-10-16T02:14:00;18.20;66.20
32706;DHT22;19094;50.972;3.538;2022-10-16T02:16:38;18.20;66.30
32706;DHT22;19094;50.972;3.538;2022-10-16T02:19:05;18.20;66.40
32706;DHT22;19094;50.972;3.538;2022-10-16T02:21:51;18.10;66.30
32706;DHT22;19094;50.972;3.538;2022-10-16T02:24:33;18.20;66.30
32706;DHT22;19094;50.972;3.538;2022-10-16T02:30:38;18.20;66.30
32706;DHT22;19094;50.972;3.538;2022-10-16T02:33:08;18.10;66.40
32706;DHT22;19094;50.972;3.538;2022-10-16T02:35:35;18.10;66.60
32706;DHT22;19094;50.972;3.538;2022-10-16T02:38:02;18.10;66.60
32706;DHT22;19094;50.972;3.538;2022-10-16T02:40:28;18.00;66.60
32706;DHT22;19094;50.972;3.538;2022-10-16T02:42:55;18.10;66.70
32706;DHT22;19094;50.972;3.538;2022-10-16T02:45:21;18.10;66.60
32706;DHT22;19094;50.972;3.538;2022-10-16T02:47:48;18.10;66.60
32706;DHT22;19094;50.972;3.538;2022-10-16T02:50:15;18.10;66.60
32706;DHT22;19094;50.972;3.538;2022-10-16T02:52:42;18.10;66.50
32706;DHT22;19094;50.972;3.538;2022-10-16T02:55:08;18.10;66.70
32706;DHT22;19094;50.972;3.538;2022-10-16T02:57:33;18.10;66.50
32706;DHT22;19094;50.972;3.538;2022-10-16T02:59:59;18.10;66.50
32706;DHT22;19094;50.972;3.538;2022-10-16T03:02:25;18.10;66.50
32706;DHT22;19094;50.972;3.538;2022-10-16T03:04:50;18.10;66.60
32706;DHT22;19094;50.972;3.538;2022-10-16T03:07:16;18.00;66.50
32706;DHT22;19094;50.972;3.538;2022-10-16T03:09:42;18.00;66.60
32706;DHT22;19094;50.972;3.538;2022-10-16T03:12:07;18.00;66.60
32706;DHT22;19094;50.972;3.538;2022-10-16T03:14:34;18.10;66.50
32706;DHT22;19094;50.972;3.538;2022-10-16T03:16:59;18.10;66.50
32706;DHT22;19094;50.972;3.538;2022-10-16T03:19:25;18.00;66.40
32706;DHT22;19094;50.972;3.538;2022-10-16T03:21:51;18.10;66.50
32706;DHT22;19094;50.972;3.538;2022-10-16T03:24:16;18.00;66.50
32706;DHT22;19094;50.972;3.538;2022-10-16T03:26:42;18.00;66.50
32706;DHT22;19094;50.972;3.538;2022-10-16T03:29:08;18.00;66.50
32706;DHT22;19094;50.972;3.538;2022-10-16T03:31:33;18.00;66.50
32706;DHT22;19094;50.972;3.538;2022-10-16T03:33:59;18.00;66.50
32706;DHT22;19094;50.972;3.538;2022-10-16T03:36:25;18.00;66.50
32706;DHT22;19094;50.972;3.538;2022-10-16T03:38:50;18.00;66.60
32706;DHT22;19094;50.972;3.538;2022-10-16T03:41:16;18.00;67.40
32706;DHT22;19094;50.972;3.538;2022-10-16T03:43:41;18.00;66.50
32706;DHT22;19094;50.972;3.538;2022-10-16T03:46:08;18.00;66.50
32706;DHT22;19094;50.972;3.538;2022-10-16T03:48:35;17.90;66.70
32706;DHT22;19094;50.972;3.538;2022-10-16T03:51:01;17.90;66.90
32706;DHT22;19094;50.972;3.538;2022-10-16T03:53:27;17.90;66.90
32706;DHT22;19094;50.972;3.538;2022-10-16T03:55:54;17.90;66.80
32706;DHT22;19094;50.972;3.538;2022-10-16T03:58:20;17.90;66.70
32706;DHT22;19094;50.972;3.538;2022-10-16T04:00:46;17.90;66.90
32706;DHT22;19094;50.972;3.538;2022-10-16T04:03:16;17.90;66.90
32706;DHT22;19094;50.972;3.538;2022-10-16T04:05:44;17.90;66.80
32706;DHT22;19094;50.972;3.538;2022-10-16T04:08:10;17.90;66.90
32706;DHT22;19094;50.972;3.538;2022-10-16T04:10:36;17.90;66.80
32706;DHT22;19094;50.972;3.538;2022-10-16T04:13:03;17.90;66.80
32706;DHT22;19094;50.972;3.538;2022-10-16T04:15:28;17.90;66.90
32706;DHT22;19094;50.972;3.538;2022-10-16T04:17:54;17.90;66.90
32706;DHT22;19094;50.972;3.538;2022-10-16T04:20:20;17.90;66.90
32706;DHT22;19094;50.972;3.538;2022-10-16T04:22:47;17.90;66.80
32706;DHT22;19094;50.972;3.538;2022-10-16T04:25:12;17.90;66.80
32706;DHT22;19094;50.972;3.538;2022-10-16T04:27:38;17.90;66.70
32706;DHT22;19094;50.972;3.538;2022-10-16T04:30:05;17.90;66.90
32706;DHT22;19094;50.972;3.538;2022-10-16T04:32:31;17.90;66.90
32706;DHT22;19094;50.972;3.538;2022-10-16T04:34:56;17.80;67.00
32706;DHT22;19094;50.972;3.538;2022-10-16T04:37:26;17.80;67.00
32706;DHT22;19094;50.972;3.538;2022-10-16T04:39:52;17.80;67.00
32706;DHT22;19094;50.972;3.538;2022-10-16T04:42:19;17.80;67.00
32706;DHT22;19094;50.972;3.538;2022-10-16T04:44:44;17.80;67.90
32706;DHT22;19094;50.972;3.538;2022-10-16T04:47:10;17.70;67.20
32706;DHT22;19094;50.972;3.538;2022-10-16T04:49:36;17.70;67.40
32706;DHT22;19094;50.972;3.538;2022-10-16T04:52:03;17.80;67.30
32706;DHT22;19094;50.972;3.538;2022-10-16T04:54:28;17.80;67.30
32706;DHT22;19094;50.972;3.538;2022-10-16T04:56:54;17.70;67.30
32706;DHT22;19094;50.972;3.538;2022-10-16T04:59:23;17.70;67.30
32706;DHT22;19094;50.972;3.538;2022-10-16T05:01:49;17.70;67.40
32706;DHT22;19094;50.972;3.538;2022-10-16T05:04:15;17.70;67.50
32706;DHT22;19094;50.972;3.538;2022-10-16T05:06:42;17.70;67.50
32706;DHT22;19094;50.972;3.538;2022-10-16T05:09:08;17.70;67.60
32706;DHT22;19094;50.972;3.538;2022-10-16T05:11:34;17.70;67.60
32706;DHT22;19094;50.972;3.538;2022-10-16T05:14:00;17.70;67.60
32706;DHT22;19094;50.972;3.538;2022-10-16T05:16:26;17.70;67.40
32706;DHT22;19094;50.972;3.538;2022-10-16T05:18:52;17.70;67.50
32706;DHT22;19094;50.972;3.538;2022-10-16T05:21:19;17.70;67.40
32706;DHT22;19094;50.972;3.538;2022-10-16T05:23:45;17.70;67.60
32706;DHT22;19094;50.972;3.538;2022-10-16T05:26:12;17.70;67.50
32706;DHT22;19094;50.972;3.538;2022-10-16T05:28:37;17.70;67.40
32706;DHT22;19094;50.972;3.538;2022-10-16T05:31:07;17.70;67.40
32706;DHT22;19094;50.972;3.538;2022-10-16T05:33:34;17.70;67.60
32706;DHT22;19094;50.972;3.538;2022-10-16T05:36:03;17.70;67.60
32706;DHT22;19094;50.972;3.538;2022-10-16T05:38:29;17.70;67.60
32706;DHT22;19094;50.972;3.538;2022-10-16T05:40:54;17.70;67.70
32706;DHT22;19094;50.972;3.538;2022-10-16T05:43:20;17.70;67.70
32706;DHT22;19094;50.972;3.538;2022-10-16T05:46:04;17.70;67.80
32706;DHT22;19094;50.972;3.538;2022-10-16T05:48:30;17.70;67.50
32706;DHT22;19094;50.972;3.538;2022-10-16T05:51:01;17.70;67.70
32706;DHT22;19094;50.972;3.538;2022-10-16T05:53:29;17.60;67.70
32706;DHT22;19094;50.972;3.538;2022-10-16T05:55:56;17.60;67.80
32706;DHT22;19094;50.972;3.538;2022-10-16T05:58:22;17.60;67.80
32706;DHT22;19094;50.972;3.538;2022-10-16T06:01:17;17.60;67.60
32706;DHT22;19094;50.972;3.538;2022-10-16T06:03:44;17.60;67.70
32706;DHT22;19094;50.972;3.538;2022-10-16T06:06:15;17.60;67.80
32706;DHT22;19094;50.972;3.538;2022-10-16T06:08:42;17.70;67.90
32706;DHT22;19094;50.972;3.538;2022-10-16T06:11:11;17.70;67.60
32706;DHT22;19094;50.972;3.538;2022-10-16T06:13:37;17.70;67.70
32706;DHT22;19094;50.972;3.538;2022-10-16T06:16:05;17.60;67.80
32706;DHT22;19094;50.972;3.538;2022-10-16T06:18:30;17.60;68.00
32706;DHT22;19094;50.972;3.538;2022-10-16T06:20:56;17.60;67.90
32706;DHT22;19094;50.972;3.538;2022-10-16T06:23:25;17.50;68.00
32706;DHT22;19094;50.972;3.538;2022-10-16T06:25:51;17.60;68.10
32706;DHT22;19094;50.972;3.538;2022-10-16T06:28:17;17.60;68.20
32706;DHT22;19094;50.972;3.538;2022-10-16T06:30:42;17.50;68.20
32706;DHT22;19094;50.972;3.538;2022-10-16T06:33:11;17.50;68.10
32706;DHT22;19094;50.972;3.538;2022-10-16T06:35:37;17.50;68.30
32706;DHT22;19094;50.972;3.538;2022-10-16T06:38:03;17.50;68.20
32706;DHT22;19094;50.972;3.538;2022-10-16T06:40:28;17.50;68.20
32706;DHT22;19094;50.972;3.538;2022-10-16T06:42:57;17.50;68.10
32706;DHT22;19094;50.972;3.538;2022-10-16T06:45:23;17.50;68.20
32706;DHT22;19094;50.972;3.538;2022-10-16T06:47:48;17.50;68.30
32706;DHT22;19094;50.972;3.538;2022-10-16T06:50:15;17.50;68.30
32706;DHT22;19094;50.972;3.538;2022-10-16T06:52:41;17.50;68.30
32706;DHT22;19094;50.972;3.538;2022-10-16T06:55:07;17.50;68.10
32706;DHT22;19094;50.972;3.538;2022-10-16T06:57:35;17.60;68.30
32706;DHT22;19094;50.972;3.538;2022-10-16T07:00:01;17.50;68.20
32706;DHT22;19094;50.972;3.538;2022-10-16T07:02:27;17.50;68.20
32706;DHT22;19094;50.972;3.538;2022-10-16T07:04:53;17.50;68.20
32706;DHT22;19094;50.972;3.538;2022-10-16T07:07:18;17.50;68.30
32706;DHT22;19094;50.972;3.538;2022-10-16T07:09:44;17.50;68.20
32706;DHT22;19094;50.972;3.538;2022-10-16T07:12:10;17.60;68.30
32706;DHT22;19094;50.972;3.538;2022-10-16T07:14:36;17.60;68.10
32706;DHT22;19094;50.972;3.538;2022-10-16T07:17:02;17.60;68.00
32706;DHT22;19094;50.972;3.538;2022-10-16T07:19:28;17.60;67.90
32706;DHT22;19094;50.972;3.538;2022-10-16T07:21:53;17.60;68.00
32706;DHT22;19094;50.972;3.538;2022-10-16T07:24:19;17.60;68.30
32706;DHT22;19094;50.972;3.538;2022-10-16T07:26:45;17.60;68.20
32706;DHT22;19094;50.972;3.538;2022-10-16T07:29:14;17.50;68.20
32706;DHT22;19094;50.972;3.538;2022-10-16T07:31:40;17.50;68.30
32706;DHT22;19094;50.972;3.538;2022-10-16T07:34:06;17.50;68.20
32706;DHT22;19094;50.972;3.538;2022-10-16T07:36:32;17.60;68.30
32706;DHT22;19094;50.972;3.538;2022-10-16T07:38:59;17.60;68.20
32706;DHT22;19094;50.972;3.538;2022-10-16T07:41:25;17.60;68.20
32706;DHT22;19094;50.972;3.538;2022-10-16T07:43:52;17.60;68.20
32706;DHT22;19094;50.972;3.538;2022-10-16T07:46:20;17.60;68.20
32706;DHT22;19094;50.972;3.538;2022-10-16T07:48:46;17.60;68.10
32706;DHT22;19094;50.972;3.538;2022-10-16T07:51:18;17.60;68.10
32706;DHT22;19094;50.972;3.538;2022-10-16T07:53:44;17.60;68.50
32706;DHT22;19094;50.972;3.538;2022-10-16T07:56:10;17.60;68.20
32706;DHT22;19094;50.972;3.538;2022-10-16T07:58:37;17.70;68.20
32706;DHT22;19094;50.972;3.538;2022-10-16T08:01:13;17.70;67.90
32706;DHT22;19094;50.972;3.538;2022-10-16T08:03:44;17.70;67.80
32706;DHT22;19094;50.972;3.538;2022-10-16T08:06:12;17.80;67.90
32706;DHT22;19094;50.972;3.538;2022-10-16T08:08:37;17.80;67.80
32706;DHT22;19094;50.972;3.538;2022-10-16T08:11:04;17.80;67.60
32706;DHT22;19094;50.972;3.538;2022-10-16T08:13:31;17.80;67.80
32706;DHT22;19094;50.972;3.538;2022-10-16T08:15:56;17.70;67.90
32706;DHT22;19094;50.972;3.538;2022-10-16T08:18:22;17.80;67.70
32706;DHT22;19094;50.972;3.538;2022-10-16T08:20:54;17.80;67.60
32706;DHT22;19094;50.972;3.538;2022-10-16T08:23:21;17.90;67.50
32706;DHT22;19094;50.972;3.538;2022-10-16T08:25:48;17.90;67.40
32706;DHT22;19094;50.972;3.538;2022-10-16T08:28:13;17.90;67.50
32706;DHT22;19094;50.972;3.538;2022-10-16T08:30:39;17.90;67.60
32706;DHT22;19094;50.972;3.538;2022-10-16T08:33:05;17.90;67.30
32706;DHT22;19094;50.972;3.538;2022-10-16T08:35:33;17.90;67.20
32706;DHT22;19094;50.972;3.538;2022-10-16T08:37:59;17.90;67.20
32706;DHT22;19094;50.972;3.538;2022-10-16T08:40:28;17.90;67.10
32706;DHT22;19094;50.972;3.538;2022-10-16T08:48:50;17.90;67.40
32706;DHT22;19094;50.972;3.538;2022-10-16T08:51:26;17.90;68.40
32706;DHT22;19094;50.972;3.538;2022-10-16T08:53:56;17.90;68.40
32706;DHT22;19094;50.972;3.538;2022-10-16T08:56:23;18.00;68.40
32706;DHT22;19094;50.972;3.538;2022-10-16T08:58:49;18.00;67.60
32706;DHT22;19094;50.972;3.538;2022-10-16T09:01:17;17.90;67.80
32706;DHT22;19094;50.972;3.538;2022-10-16T09:06:58;17.70;70.00
32706;DHT22;19094;50.972;3.538;2022-10-16T09:09:34;17.70;69.90
32706;DHT22;19094;50.972;3.538;2022-10-16T09:12:15;17.70;69.90
32706;DHT22;19094;50.972;3.538;2022-10-16T09:20:10;18.20;69.30
32706;DHT22;19094;50.972;3.538;2022-10-16T09:22:37;18.20;68.60
32706;DHT22;19094;50.972;3.538;2022-10-16T09:25:13;18.30;68.50
32706;DHT22;19094;50.972;3.538;2022-10-16T09:27:40;18.40;68.40
32706;DHT22;19094;50.972;3.538;2022-10-16T09:30:15;18.40;68.30
32706;DHT22;19094;50.972;3.538;2022-10-16T09:32:43;18.50;68.00
32706;DHT22;19094;50.972;3.538;2022-10-16T09:35:17;18.50;68.00
32706;DHT22;19094;50.972;3.538;2022-10-16T09:37:48;18.60;67.80
32706;DHT22;19094;50.972;3.538;2022-10-16T09:40:44;18.50;67.80
32706;DHT22;19094;50.972;3.538;2022-10-16T09:43:20;18.50;67.70
32706;DHT22;19094;50.972;3.538;2022-10-16T09:49:03;18.60;67.70
32706;DHT22;19094;50.972;3.538;2022-10-16T09:51:32;18.60;67.90
32706;DHT22;19094;50.972;3.538;2022-10-16T09:54:00;18.50;67.40
32706;DHT22;19094;50.972;3.538;2022-10-16T09:56:33;18.30;69.10
32706;DHT22;19094;50.972;3.538;2022-10-16T09:59:10;18.20;69.90
32706;DHT22;19094;50.972;3.538;2022-10-16T10:01:38;18.40;68.70
32706;DHT22;19094;50.972;3.538;2022-10-16T10:04:05;18.70;67.80
32706;DHT22;19094;50.972;3.538;2022-10-16T10:07:02;18.90;67.00
32706;DHT22;19094;50.972;3.538;2022-10-16T10:09:32;19.10;65.40
32706;DHT22;19094;50.972;3.538;2022-10-16T10:12:01;19.20;65.20
32706;DHT22;19094;50.972;3.538;2022-10-16T10:15:06;19.30;64.90
32706;DHT22;19094;50.972;3.538;2022-10-16T10:17:26;19.30;64.80
32706;DHT22;19094;50.972;3.538;2022-10-16T10:19:58;19.30;65.20
32706;DHT22;19094;50.972;3.538;2022-10-16T10:22:30;19.40;65.90
32706;DHT22;19094;50.972;3.538;2022-10-16T10:30:56;19.60;64.80
32706;DHT22;19094;50.972;3.538;2022-10-16T10:39:40;19.90;63.20
32706;DHT22;19094;50.972;3.538;2022-10-16T10:45:20;20.20;62.50
32706;DHT22;19094;50.972;3.538;2022-10-16T10:56:06;20.60;60.40
32706;DHT22;19094;50.972;3.538;2022-10-16T10:58:48;20.70;59.30
32706;DHT22;19094;50.972;3.538;2022-10-16T11:01:48;20.60;59.90
32706;DHT22;19094;50.972;3.538;2022-10-16T11:07:09;20.70;58.70
32706;DHT22;19094;50.972;3.538;2022-10-16T11:09:42;20.80;58.60
32706;DHT22;19094;50.972;3.538;2022-10-16T11:12:18;20.80;58.90
32706;DHT22;19094;50.972;3.538;2022-10-16T11:20:25;20.80;58.30
32706;DHT22;19094;50.972;3.538;2022-10-16T11:22:56;21.00;58.60
32706;DHT22;19094;50.972;3.538;2022-10-16T11:25:25;21.10;59.10
32706;DHT22;19094;50.972;3.538;2022-10-16T11:31:03;21.30;58.40
32706;DHT22;19094;50.972;3.538;2022-10-16T11:33:32;21.60;58.10
32706;DHT22;19094;50.972;3.538;2022-10-16T11:36:22;21.80;57.20
32706;DHT22;19094;50.972;3.538;2022-10-16T11:41:47;22.20;55.40
32706;DHT22;19094;50.972;3.538;2022-10-16T11:44:27;22.40;54.80
32706;DHT22;19094;50.972;3.538;2022-10-16T11:47:29;22.60;54.00
32706;DHT22;19094;50.972;3.538;2022-10-16T11:55:44;23.00;52.90
32706;DHT22;19094;50.972;3.538;2022-10-16T11:58:31;23.10;52.90
32706;DHT22;19094;50.972;3.538;2022-10-16T12:06:57;23.10;52.10
32706;DHT22;19094;50.972;3.538;2022-10-16T12:09:34;23.00;52.80
32706;DHT22;19094;50.972;3.538;2022-10-16T12:12:00;23.10;52.60
32706;DHT22;19094;50.972;3.538;2022-10-16T12:14:36;23.30;52.10
32706;DHT22;19094;50.972;3.538;2022-10-16T12:17:04;23.30;51.40
32706;DHT22;19094;50.972;3.538;2022-10-16T12:20:18;23.30;51.30
32706;DHT22;19094;50.972;3.538;2022-10-16T12:23:05;23.50;50.90
32706;DHT22;19094;50.972;3.538;2022-10-16T12:25:36;23.90;50.60
32706;DHT22;19094;50.972;3.538;2022-10-16T12:28:19;24.10;50.40
32706;DHT22;19094;50.972;3.538;2022-10-16T12:30:59;24.30;49.50
32706;DHT22;19094;50.972;3.538;2022-10-16T12:33:31;24.40;49.20
32706;DHT22;19094;50.972;3.538;2022-10-16T12:36:00;24.50;49.40
32706;DHT22;19094;50.972;3.538;2022-10-16T12:38:45;24.50;49.30
32706;DHT22;19094;50.972;3.538;2022-10-16T12:41:12;24.50;49.00
32706;DHT22;19094;50.972;3.538;2022-10-16T12:43:42;24.70;48.80
32706;DHT22;19094;50.972;3.538;2022-10-16T12:48:34;24.80;48.20
32706;DHT22;19094;50.972;3.538;2022-10-16T12:54:12;24.40;49.00
32706;DHT22;19094;50.972;3.538;2022-10-16T12:57:03;24.40;49.30
32706;DHT22;19094;50.972;3.538;2022-10-16T13:21:39;23.50;51.50
32706;DHT22;19094;50.972;3.538;2022-10-16T13:24:11;23.30;52.10
32706;DHT22;19094;50.972;3.538;2022-10-16T13:29:23;23.10;52.70
32706;DHT22;19094;50.972;3.538;2022-10-16T13:31:50;23.00;52.90
32706;DHT22;19094;50.972;3.538;2022-10-16T13:34:19;23.10;53.00
32706;DHT22;19094;50.972;3.538;2022-10-16T13:36:49;23.20;52.60
32706;DHT22;19094;50.972;3.538;2022-10-16T13:41:57;23.70;51.30
32706;DHT22;19094;50.972;3.538;2022-10-16T13:44:25;23.70;51.40
32706;DHT22;19094;50.972;3.538;2022-10-16T13:46:59;23.70;51.40
32706;DHT22;19094;50.972;3.538;2022-10-16T13:49:25;23.50;51.60
32706;DHT22;19094;50.972;3.538;2022-10-16T13:51:58;23.40;51.60
32706;DHT22;19094;50.972;3.538;2022-10-16T13:54:26;23.30;52.00
32706;DHT22;19094;50.972;3.538;2022-10-16T13:56:54;23.10;52.50
32706;DHT22;19094;50.972;3.538;2022-10-16T13:59:34;22.90;53.10
32706;DHT22;19094;50.972;3.538;2022-10-16T14:02:05;22.70;53.00
32706;DHT22;19094;50.972;3.538;2022-10-16T14:04:38;22.60;53.30
32706;DHT22;19094;50.972;3.538;2022-10-16T14:07:04;22.50;53.50
32706;DHT22;19094;50.972;3.538;2022-10-16T14:09:33;22.40;54.50
32706;DHT22;19094;50.972;3.538;2022-10-16T14:12:02;22.30;54.10
32706;DHT22;19094;50.972;3.538;2022-10-16T14:14:41;22.30;54.00
32706;DHT22;19094;50.972;3.538;2022-10-16T14:17:17;22.20;54.50
32706;DHT22;19094;50.972;3.538;2022-10-16T14:19:46;22.20;54.70
32706;DHT22;19094;50.972;3.538;2022-10-16T14:24:50;21.90;55.00
32706;DHT22;19094;50.972;3.538;2022-10-16T14:27:35;21.90;55.10
32706;DHT22;19094;50.972;3.538;2022-10-16T14:30:21;21.80;54.70
32706;DHT22;19094;50.972;3.538;2022-10-16T14:36:04;21.70;54.50
32706;DHT22;19094;50.972;3.538;2022-10-16T14:38:31;21.60;54.90
32706;DHT22;19094;50.972;3.538;2022-10-16T14:40:58;21.60;55.10
32706;DHT22;19094;50.972;3.538;2022-10-16T14:43:39;21.50;55.30
32706;DHT22;19094;50.972;3.538;2022-10-16T14:46:33;21.50;55.20
32706;DHT22;19094;50.972;3.538;2022-10-16T14:49:05;21.50;55.10
32706;DHT22;19094;50.972;3.538;2022-10-16T14:51:42;21.40;55.90
32706;DHT22;19094;50.972;3.538;2022-10-16T14:54:14;21.30;56.20
32706;DHT22;19094;50.972;3.538;2022-10-16T14:56:54;21.30;56.50
32706;DHT22;19094;50.972;3.538;2022-10-16T14:59:41;21.20;56.50
32706;DHT22;19094;50.972;3.538;2022-10-16T15:02:30;21.10;56.80
32706;DHT22;19094;50.972;3.538;2022-10-16T15:04:57;21.10;57.80
32706;DHT22;19094;50.972;3.538;2022-10-16T15:07:25;21.10;57.50
32706;DHT22;19094;50.972;3.538;2022-10-16T15:09:51;21.00;57.70
32706;DHT22;19094;50.972;3.538;2022-10-16T15:12:17;21.00;57.90
32706;DHT22;19094;50.972;3.538;2022-10-16T15:14:43;20.90;58.00
32706;DHT22;19094;50.972;3.538;2022-10-16T15:17:10;20.90;58.10
32706;DHT22;19094;50.972;3.538;2022-10-16T15:19:36;20.90;58.40
32706;DHT22;19094;50.972;3.538;2022-10-16T15:22:02;20.90;58.60
32706;DHT22;19094;50.972;3.538;2022-10-16T15:24:27;20.80;58.80
32706;DHT22;19094;50.972;3.538;2022-10-16T15:26:53;20.80;58.90
32706;DHT22;19094;50.972;3.538;2022-10-16T15:29:19;20.80;59.10
32706;DHT22;19094;50.972;3.538;2022-10-16T15:31:44;20.80;59.10
32706;DHT22;19094;50.972;3.538;2022-10-16T15:34:13;20.80;59.10
32706;DHT22;19094;50.972;3.538;2022-10-16T15:36:39;20.70;59.50
32706;DHT22;19094;50.972;3.538;2022-10-16T15:39:13;20.60;60.10
32706;DHT22;19094;50.972;3.538;2022-10-16T15:41:39;20.60;60.00
32706;DHT22;19094;50.972;3.538;2022-10-16T15:44:05;20.60;60.10
32706;DHT22;19094;50.972;3.538;2022-10-16T15:46:31;20.60;60.10
32706;DHT22;19094;50.972;3.538;2022-10-16T15:48:59;20.60;60.20
32706;DHT22;19094;50.972;3.538;2022-10-16T15:51:26;20.60;60.20
32706;DHT22;19094;50.972;3.538;2022-10-16T15:53:58;20.60;60.40
32706;DHT22;19094;50.972;3.538;2022-10-16T15:56:27;20.50;61.10
32706;DHT22;19094;50.972;3.538;2022-10-16T15:58:55;20.50;60.80
32706;DHT22;19094;50.972;3.538;2022-10-16T16:01:22;20.50;60.40
32706;DHT22;19094;50.972;3.538;2022-10-16T16:03:48;20.60;60.40
32706;DHT22;19094;50.972;3.538;2022-10-16T16:06:17;20.50;61.10
32706;DHT22;19094;50.972;3.538;2022-10-16T16:08:43;20.50;62.00
32706;DHT22;19094;50.972;3.538;2022-10-16T16:11:10;20.50;61.70
32706;DHT22;19094;50.972;3.538;2022-10-16T16:13:36;20.50;61.30
32706;DHT22;19094;50.972;3.538;2022-10-16T16:16:10;20.50;61.40
32706;DHT22;19094;50.972;3.538;2022-10-16T16:18:36;20.40;61.40
32706;DHT22;19094;50.972;3.538;2022-10-16T16:21:03;20.40;61.40
32706;DHT22;19094;50.972;3.538;2022-10-16T16:23:29;20.40;61.50
32706;DHT22;19094;50.972;3.538;2022-10-16T16:26:13;20.40;61.50
32706;DHT22;19094;50.972;3.538;2022-10-16T16:28:40;20.30;62.10
32706;DHT22;19094;50.972;3.538;2022-10-16T16:31:06;20.40;61.70
32706;DHT22;19094;50.972;3.538;2022-10-16T16:33:32;20.30;61.70
32706;DHT22;19094;50.972;3.538;2022-10-16T16:36:03;20.40;61.80
32706;DHT22;19094;50.972;3.538;2022-10-16T16:38:29;20.30;61.90
32706;DHT22;19094;50.972;3.538;2022-10-16T16:40:55;20.30;61.80
32706;DHT22;19094;50.972;3.538;2022-10-16T16:43:27;20.30;61.90
32706;DHT22;19094;50.972;3.538;2022-10-16T16:45:53;20.30;61.90
32706;DHT22;19094;50.972;3.538;2022-10-16T16:48:19;20.30;61.90
32706;DHT22;19094;50.972;3.538;2022-10-16T16:50:46;20.30;61.70
32706;DHT22;19094;50.972;3.538;2022-10-16T16:53:12;20.30;62.50
32706;DHT22;19094;50.972;3.538;2022-10-16T16:55:38;20.40;61.90
32706;DHT22;19094;50.972;3.538;2022-10-16T16:58:05;20.40;62.10
32706;DHT22;19094;50.972;3.538;2022-10-16T17:00:30;20.40;62.30
32706;DHT22;19094;50.972;3.538;2022-10-16T17:02:56;20.40;62.10
32706;DHT22;19094;50.972;3.538;2022-10-16T17:05:22;20.50;62.20
32706;DHT22;19094;50.972;3.538;2022-10-16T17:07:48;20.50;62.10
32706;DHT22;19094;50.972;3.538;2022-10-16T17:10:14;20.50;62.20
32706;DHT22;19094;50.972;3.538;2022-10-16T17:12:40;20.50;62.10
32706;DHT22;19094;50.972;3.538;2022-10-16T17:15:08;20.50;62.20
32706;DHT22;19094;50.972;3.538;2022-10-16T17:17:33;20.50;62.10
32706;DHT22;19094;50.972;3.538;2022-10-16T17:19:59;20.50;62.20
32706;DHT22;19094;50.972;3.538;2022-10-16T17:22:26;20.40;62.10
32706;DHT22;19094;50.972;3.538;2022-10-16T17:24:51;20.40;62.10
32706;DHT22;19094;50.972;3.538;2022-10-16T17:27:19;20.40;62.10
32706;DHT22;19094;50.972;3.538;2022-10-16T17:29:45;20.40;62.10
32706;DHT22;19094;50.972;3.538;2022-10-16T17:32:14;20.40;62.10
32706;DHT22;19094;50.972;3.538;2022-10-16T17:34:41;20.40;62.10
32706;DHT22;19094;50.972;3.538;2022-10-16T17:37:08;20.40;62.20
32706;DHT22;19094;50.972;3.538;2022-10-16T17:39:34;20.40;62.30
32706;DHT22;19094;50.972;3.538;2022-10-16T17:41:59;20.30;62.20
32706;DHT22;19094;50.972;3.538;2022-10-16T17:44:25;20.30;62.30
32706;DHT22;19094;50.972;3.538;2022-10-16T17:46:53;20.30;62.30